Time;durP1;ratioP1;P1;durP2;ratioP2;P2;SDS_P1;SDS_P2;PMS_P1;PMS_P2;Temp;Humidity;BMP_temperature;BMP_pressure;BME280_temperature;BME280_humidity;BME280_pressure;Samples;Min_cycle;Max_cycle;Signal;HPM_P1;HPM_P2
2023/09/20 00:00:38;;;;;;;7.22;2.65;;;;;;;16.85;90.89;100815.03;5029786;28;20045;-77
2023/09/20 00:03:06;;;;;;;7.32;2.75;;;;;;;16.80;91.04;100807.50;5029041;28;20639;-78
2023/09/20 00:05:32;;;;;;;8.85;2.70;;;;;;;16.74;91.12;100818.75;5044771;28;20394;-77
2023/09/20 00:08:02;;;;;;;6.05;2.20;;;;;;;16.73;91.29;100810.94;5028518;28;20021;-77
2023/09/20 00:10:27;;;;;;;6.93;2.60;;;;;;;16.70;91.88;100814.75;5030391;28;20638;-77
2023/09/20 00:12:54;;;;;;;9.20;2.70;;;;;;;16.65;91.96;100817.00;5029358;28;20173;-77
2023/09/20 00:15:21;;;;;;;8.07;2.90;;;;;;;16.63;92.19;100810.16;5023535;28;20113;-77
2023/09/20 00:17:48;;;;;;;10.05;3.08;;;;;;;16.60;92.37;100816.63;5021800;28;20032;-77
2023/09/20 00:20:16;;;;;;;7.45;2.45;;;;;;;16.53;92.66;100808.44;5029941;28;20448;-77
2023/09/20 00:22:44;;;;;;;6.53;2.30;;;;;;;16.52;92.87;100803.28;5029476;28;20173;-77
2023/09/20 00:25:11;;;;;;;8.85;2.83;;;;;;;16.47;93.11;100808.22;5029462;28;20029;-77
2023/09/20 00:27:39;;;;;;;8.40;2.83;;;;;;;16.45;93.36;100807.53;5044285;28;20425;-78
2023/09/20 00:30:14;;;;;;;5.45;2.78;;;;;;;16.44;93.32;100803.22;5028568;28;20083;-77
2023/09/20 00:32:43;;;;;;;8.30;2.80;;;;;;;16.41;93.75;100803.50;5029734;28;20072;-76
2023/09/20 00:35:13;;;;;;;6.03;2.53;;;;;;;16.40;94.00;100804.47;5029128;28;20032;-76
2023/09/20 00:37:45;;;;;;;6.38;2.50;;;;;;;16.40;94.06;100793.84;5028690;28;20079;-76
2023/09/20 00:40:21;;;;;;;;;;;;;;;16.50;92.38;100799.94;5017969;28;20032;-77
2023/09/20 00:42:50;;;;;;;7.50;2.85;;;;;;;16.38;94.33;100795.84;5028920;28;19971;-76
2023/09/20 00:45:17;;;;;;;7.03;2.50;;;;;;;16.37;94.30;100791.50;5027216;28;20021;-77
2023/09/20 00:47:47;;;;;;;5.70;2.50;;;;;;;16.37;94.48;100788.84;5025283;28;20048;-77
2023/09/20 00:50:14;;;;;;;8.10;2.63;;;;;;;16.35;94.73;100785.50;5028827;28;20101;-76
2023/09/20 00:52:46;;;;;;;8.77;2.85;;;;;;;16.36;94.81;100789.84;5028796;28;20037;-77
2023/09/20 00:55:20;;;;;;;11.52;2.75;;;;;;;16.36;94.82;100782.72;5029204;28;20493;-77
2023/09/20 00:57:47;;;;;;;7.53;2.33;;;;;;;16.37;95.17;100788.84;5026639;28;20033;-77
2023/09/20 01:00:27;;;;;;;6.35;2.80;;;;;;;16.39;94.97;100786.88;5028598;28;20061;-77
2023/09/20 01:02:57;;;;;;;8.70;2.72;;;;;;;16.38;95.09;100796.66;5029282;28;20030;-76
2023/09/20 01:05:25;;;;;;;7.60;2.40;;;;;;;16.37;95.12;100792.34;5023287;28;20116;-77
2023/09/20 01:07:56;;;;;;;10.73;2.85;;;;;;;16.38;94.97;100798.50;5028455;28;20775;-77
2023/09/20 01:10:23;;;;;;;6.70;2.47;;;;;;;16.38;95.08;100801.16;5027787;28;20053;-77
2023/09/20 01:12:51;;;;;;;5.18;2.25;;;;;;;16.34;95.47;100797.13;5029633;28;20026;-76
2023/09/20 01:15:17;;;;;;;7.15;2.15;;;;;;;16.34;96.08;100794.47;5028957;28;20024;-78
2023/09/20 01:17:46;;;;;;;6.70;2.70;;;;;;;16.33;96.01;100785.66;5028406;28;20033;-77
2023/09/20 01:20:17;;;;;;;7.60;2.50;;;;;;;16.33;96.26;100783.00;5029685;28;20033;-77
2023/09/20 01:22:43;;;;;;;9.90;3.25;;;;;;;16.36;95.77;100787.19;5029394;28;20036;-76
2023/09/20 01:25:11;;;;;;;11.65;2.78;;;;;;;16.34;96.06;100783.84;5009863;28;20022;-77
2023/09/20 01:27:38;;;;;;;6.90;2.47;;;;;;;16.34;96.51;100775.88;5032799;28;20057;-77
2023/09/20 01:30:05;;;;;;;9.15;2.90;;;;;;;16.34;96.31;100774.06;5031370;28;20036;-76
2023/09/20 01:32:36;;;;;;;6.53;2.20;;;;;;;16.33;96.42;100783.00;5032170;28;20037;-76
2023/09/20 01:35:02;;;;;;;9.18;2.55;;;;;;;16.32;96.16;100776.03;5031276;28;20370;-78
2023/09/20 01:37:28;;;;;;;9.35;2.55;;;;;;;16.33;96.57;100768.91;5032090;28;20022;-75
2023/09/20 01:39:54;;;;;;;7.38;2.75;;;;;;;16.33;96.58;100767.09;5032138;28;20034;-76
2023/09/20 01:42:21;;;;;;;9.15;2.75;;;;;;;16.34;96.53;100765.25;5012304;28;20036;-78
2023/09/20 01:44:49;;;;;;;7.85;2.75;;;;;;;16.35;96.57;100764.28;5011268;28;20046;-78
2023/09/20 01:47:17;;;;;;;10.98;2.95;;;;;;;16.35;96.59;100767.75;5030646;28;20628;-78
2023/09/20 01:49:43;;;;;;;7.10;2.83;;;;;;;16.36;96.52;100755.31;5032536;28;20032;-76
2023/09/20 01:52:09;;;;;;;9.10;2.40;;;;;;;16.38;96.65;100748.88;5026284;28;20026;-77
2023/09/20 01:54:35;;;;;;;7.65;2.55;;;;;;;16.43;96.63;100751.09;5030646;28;20478;-76
2023/09/20 01:57:02;;;;;;;7.43;2.83;;;;;;;16.45;96.68;100757.09;5024367;28;20061;-78
2023/09/20 01:59:27;;;;;;;7.50;3.03;;;;;;;16.47;96.48;100753.28;5031791;28;20029;-77
2023/09/20 02:01:52;;;;;;;8.63;2.80;;;;;;;16.52;96.58;100760.78;5031649;28;20104;-76
2023/09/20 02:04:20;;;;;;;8.13;2.75;;;;;;;16.55;96.59;100745.38;5031599;28;20473;-77
2023/09/20 02:06:46;;;;;;;7.05;2.83;;;;;;;16.57;96.77;100742.56;5031357;28;20032;-76
2023/09/20 02:09:13;;;;;;;7.72;2.80;;;;;;;16.61;96.45;100743.91;5030494;28;20029;-77
2023/09/20 02:11:39;;;;;;;8.25;2.92;;;;;;;16.65;96.14;100745.28;5029287;28;20017;-77
2023/09/20 02:14:05;;;;;;;6.22;2.55;;;;;;;16.68;96.00;100739.69;5027092;28;20367;-76
2023/09/20 02:16:32;;;;;;;6.65;2.58;;;;;;;16.71;95.77;100735.88;5012383;28;20113;-77
2023/09/20 02:18:57;;;;;;;8.38;2.80;;;;;;;16.74;95.96;100739.06;5011901;28;20658;-76
2023/09/20 02:21:23;;;;;;;6.90;2.63;;;;;;;16.76;95.86;100731.75;5028280;28;20037;-76
2023/09/20 02:23:54;;;;;;;7.72;2.50;;;;;;;16.78;95.63;100735.09;5030788;28;20119;-77
2023/09/20 02:26:20;;;;;;;5.80;2.42;;;;;;;16.79;95.75;100731.44;5026864;28;20029;-77
2023/09/20 02:28:45;;;;;;;9.52;2.80;;;;;;;16.82;95.65;100728.50;5029969;28;20022;-76
2023/09/20 02:31:11;;;;;;;5.93;2.47;;;;;;;16.81;95.73;100718.84;5032093;28;20028;-76
2023/09/20 02:33:38;;;;;;;7.38;2.80;;;;;;;16.80;95.53;100717.16;5013699;28;20026;-77
2023/09/20 02:36:05;;;;;;;6.72;2.70;;;;;;;16.83;95.72;100724.84;5024509;28;20113;-76
2023/09/20 02:38:30;;;;;;;10.15;2.97;;;;;;;16.82;95.74;100720.53;5031017;28;20035;-76
2023/09/20 02:40:59;;;;;;;9.50;2.70;;;;;;;16.82;95.72;100722.34;5029834;28;20102;-76
2023/09/20 02:43:26;;;;;;;8.50;2.97;;;;;;;16.82;96.03;100720.53;5030180;28;20556;-76
2023/09/20 02:45:52;;;;;;;10.20;2.80;;;;;;;16.82;95.63;100712.56;5029650;28;20033;-77
2023/09/20 02:48:18;;;;;;;7.72;2.63;;;;;;;16.82;95.94;100703.75;5033323;28;20021;-75
2023/09/20 02:50:50;;;;;;;7.22;2.80;;;;;;;16.79;96.05;100710.19;5013957;28;20034;-76
2023/09/20 02:53:16;;;;;;;;;;;;;;;16.87;95.52;100702.28;5030714;28;20108;-77
2023/09/20 02:55:41;;;;;;;7.03;2.90;;;;;;;16.75;95.67;100702.69;5031087;28;20047;-76
2023/09/20 02:58:08;;;;;;;7.53;2.58;;;;;;;16.73;96.39;100704.66;5030381;28;20508;-77
2023/09/20 03:00:33;;;;;;;7.90;2.60;;;;;;;16.71;96.44;100696.84;5029851;28;20029;-76
2023/09/20 03:03:01;;;;;;;7.47;3.15;;;;;;;16.69;96.44;100692.69;5031080;28;20768;-76
2023/09/20 03:05:34;;;;;;;8.60;2.85;;;;;;;16.65;97.07;100702.75;5022933;28;20026;-76
2023/09/20 03:08:01;;;;;;;7.53;2.78;;;;;;;16.64;96.92;100700.25;5016858;28;20401;-76
2023/09/20 03:10:28;;;;;;;8.10;2.97;;;;;;;16.60;97.57;100692.59;5031975;28;20032;-76
2023/09/20 03:12:57;;;;;;;8.27;2.90;;;;;;;16.59;97.88;100690.09;5032075;28;20108;-76
2023/09/20 03:15:25;;;;;;;7.93;3.10;;;;;;;16.54;98.09;100689.75;5028051;28;20100;-76
2023/09/20 03:18:00;;;;;;;6.43;2.65;;;;;;;16.54;97.94;100684.44;5030274;28;20032;-77
2023/09/20 03:20:26;;;;;;;14.18;3.00;;;;;;;16.49;98.44;100679.59;5031366;28;20067;-77
2023/09/20 03:22:54;;;;;;;8.75;3.05;;;;;;;16.45;98.75;100674.75;5015135;28;20030;-77
2023/09/20 03:25:23;;;;;;;8.63;3.30;;;;;;;16.43;98.49;100676.72;5036590;28;20033;-77
2023/09/20 03:27:50;;;;;;;6.75;2.75;;;;;;;16.41;98.84;100668.06;5044060;28;20021;-77
2023/09/20 03:30:16;;;;;;;7.40;2.67;;;;;;;16.37;99.17;100672.84;5042470;28;21056;-76
2023/09/20 03:32:44;;;;;;;11.60;3.28;;;;;;;16.33;99.37;100666.19;5041974;28;20056;-76
2023/09/20 03:35:11;;;;;;;8.25;2.95;;;;;;;16.30;99.43;100675.28;5044981;28;20075;-77
2023/09/20 03:37:37;;;;;;;7.28;2.60;;;;;;;16.27;99.71;100683.56;5057523;28;20040;-76
2023/09/20 03:40:11;;;;;;;7.38;2.50;;;;;;;16.23;100.00;100687.53;5029559;28;20100;-77
2023/09/20 03:42:38;;;;;;;8.43;2.80;;;;;;;16.21;100.00;100684.19;5030864;28;20393;-76
2023/09/20 03:45:06;;;;;;;8.73;2.92;;;;;;;16.17;100.00;100682.84;5029867;28;20119;-76
2023/09/20 03:47:32;;;;;;;7.97;2.70;;;;;;;16.15;100.00;100686.63;5030185;28;20033;-77
2023/09/20 03:49:57;;;;;;;7.90;2.70;;;;;;;16.09;100.00;100674.81;5045763;28;20032;-77
2023/09/20 03:52:22;;;;;;;7.78;2.63;;;;;;;16.08;100.00;100678.44;5013438;28;20029;-77
2023/09/20 03:54:53;;;;;;;8.95;2.80;;;;;;;16.03;100.00;100691.34;5017540;28;20116;-77
2023/09/20 03:57:24;;;;;;;10.20;3.13;;;;;;;16.01;100.00;100688.00;5027633;28;20025;-78
2023/09/20 03:59:52;;;;;;;6.82;2.83;;;;;;;15.98;100.00;100681.16;5029079;28;20031;-77
2023/09/20 04:02:20;;;;;;;5.53;2.63;;;;;;;15.93;100.00;100682.59;5031133;28;20021;-78
2023/09/20 04:04:45;;;;;;;8.23;3.38;;;;;;;15.92;100.00;100675.63;5030229;28;20049;-79
2023/09/20 04:07:13;;;;;;;7.35;2.50;;;;;;;15.86;100.00;100678.91;5029134;28;20543;-77
2023/09/20 04:09:40;;;;;;;8.00;2.85;;;;;;;15.82;100.00;100678.38;5030327;28;20026;-77
2023/09/20 04:12:06;;;;;;;10.38;3.03;;;;;;;15.80;100.00;100682.16;5027599;28;20028;-78
2023/09/20 04:14:31;;;;;;;7.65;3.20;;;;;;;15.78;100.00;100681.47;5028646;28;20473;-77
2023/09/20 04:16:57;;;;;;;6.60;2.65;;;;;;;15.77;100.00;100677.16;5029065;28;20059;-76
2023/09/20 04:19:24;;;;;;;7.20;2.70;;;;;;;15.74;100.00;100672.16;5029850;28;20029;-77
2023/09/20 04:21:50;;;;;;;7.55;3.25;;;;;;;15.71;100.00;100667.16;5029255;28;20485;-77
2023/09/20 04:24:17;;;;;;;8.23;2.85;;;;;;;15.66;100.00;100662.31;5030732;28;20022;-78
2023/09/20 04:26:42;;;;;;;6.65;2.80;;;;;;;15.68;100.00;100664.81;5030458;28;20437;-79
2023/09/20 04:29:08;;;;;;;7.97;3.03;;;;;;;15.64;100.00;100659.81;5028532;28;20025;-77
2023/09/20 04:31:34;;;;;;;9.20;3.30;;;;;;;15.64;100.00;100654.50;5029165;28;20382;-77
2023/09/20 04:34:01;;;;;;;10.73;3.10;;;;;;;15.58;100.00;100648.94;5029598;28;20470;-76
2023/09/20 04:36:29;;;;;;;10.80;3.03;;;;;;;15.56;100.00;100641.09;5044330;28;20338;-78
2023/09/20 04:38:55;;;;;;;6.45;2.97;;;;;;;15.54;100.00;100643.06;5029912;28;20049;-77
2023/09/20 04:41:21;;;;;;;7.38;3.15;;;;;;;15.50;100.00;100644.34;5029013;28;20021;-76
2023/09/20 04:43:49;;;;;;;6.53;2.70;;;;;;;15.52;100.00;100639.75;5030484;28;20494;-79
2023/09/20 04:46:15;;;;;;;9.82;2.90;;;;;;;15.48;100.00;100638.38;5029127;28;20112;-78
2023/09/20 04:48:41;;;;;;;8.75;3.15;;;;;;;15.46;100.00;100639.50;5021008;28;20471;-77
2023/09/20 04:51:07;;;;;;;8.63;3.40;;;;;;;15.45;100.00;100643.97;5027343;28;20037;-78
2023/09/20 04:53:34;;;;;;;5.82;2.35;;;;;;;15.41;100.00;100637.31;5028334;28;20060;-77
2023/09/20 04:56:00;;;;;;;8.77;3.22;;;;;;;15.42;100.00;100648.75;5029387;28;20036;-78
2023/09/20 04:58:26;;;;;;;11.70;3.15;;;;;;;15.39;100.00;100643.75;5028669;28;20037;-78
2023/09/20 05:00:51;;;;;;;10.50;3.53;;;;;;;15.38;100.00;100637.63;5028473;28;20152;-77
2023/09/20 05:03:19;;;;;;;9.90;3.03;;;;;;;15.36;100.00;100639.59;5027974;28;20022;-77
2023/09/20 05:05:47;;;;;;;7.53;3.53;;;;;;;15.33;100.00;100635.41;5030493;28;20075;-77
2023/09/20 05:08:15;;;;;;;8.57;3.10;;;;;;;15.33;100.00;100637.22;5033400;28;20033;-77
2023/09/20 05:10:42;;;;;;;7.10;3.00;;;;;;;15.33;100.00;100624.81;5034171;28;20029;-77
2023/09/20 05:13:09;;;;;;;12.80;3.40;;;;;;;15.31;100.00;100633.91;5030564;28;21156;-76
2023/09/20 05:15:44;;;;;;;11.15;3.17;;;;;;;15.31;100.00;100632.09;5033085;28;20434;-77
2023/09/20 05:18:11;;;;;;;7.68;3.13;;;;;;;15.31;100.00;100636.53;5049355;28;20025;-78
2023/09/20 05:20:37;;;;;;;8.15;3.10;;;;;;;15.31;100.00;100631.25;5034325;28;20022;-77
2023/09/20 05:23:04;;;;;;;5.93;2.72;;;;;;;15.30;100.00;100640.19;5046020;28;21741;-76
2023/09/20 05:25:29;;;;;;;8.27;3.30;;;;;;;15.28;100.00;100639.50;5031516;28;20825;-77
2023/09/20 05:27:54;;;;;;;9.13;3.80;;;;;;;15.29;100.00;100641.16;5033742;28;20025;-78
2023/09/20 05:30:21;;;;;;;9.80;3.83;;;;;;;15.27;100.00;100636.00;5032053;28;20029;-77
2023/09/20 05:32:50;;;;;;;9.48;4.18;;;;;;;15.27;100.00;100633.38;5031640;28;20025;-78
2023/09/20 05:35:15;;;;;;;10.02;3.70;;;;;;;15.27;100.00;100637.81;5033021;28;20468;-77
2023/09/20 05:37:44;;;;;;;7.07;3.90;;;;;;;15.25;100.00;100626.53;5028577;28;20025;-77
2023/09/20 05:40:17;;;;;;;9.15;3.95;;;;;;;15.26;100.00;100628.22;5044767;28;20061;-76
2023/09/20 05:42:50;;;;;;;10.10;3.63;;;;;;;15.26;100.00;100628.22;5013554;28;20033;-76
2023/09/20 05:45:16;;;;;;;8.45;3.67;;;;;;;15.24;100.00;100623.06;5028756;28;20033;-76
2023/09/20 05:47:44;;;;;;;9.27;3.70;;;;;;;15.26;100.00;100628.22;5022834;28;20416;-75
2023/09/20 05:50:13;;;;;;;9.32;3.78;;;;;;;15.28;100.00;100620.94;5047747;28;20481;-76
2023/09/20 05:52:43;;;;;;;8.40;3.65;;;;;;;15.26;100.00;100622.91;5049514;28;20032;-78
2023/09/20 05:55:14;;;;;;;12.90;3.80;;;;;;;15.27;100.00;100624.56;5039906;28;20026;-76
2023/09/20 05:57:43;;;;;;;9.77;3.45;;;;;;;15.27;100.00;100620.09;5012936;28;20053;-78
2023/09/20 06:00:16;;;;;;;10.75;3.40;;;;;;;15.28;100.00;100620.94;5012582;28;20487;-76
2023/09/20 06:02:43;;;;;;;9.60;3.50;;;;;;;15.31;100.00;100631.25;5030125;28;20104;-76
2023/09/20 06:05:11;;;;;;;8.43;2.95;;;;;;;15.32;100.00;100624.97;5031778;28;20026;-77
2023/09/20 06:07:36;;;;;;;7.90;3.22;;;;;;;15.32;100.00;100627.59;5032471;28;20516;-76
2023/09/20 06:10:04;;;;;;;8.45;3.22;;;;;;;15.37;100.00;100622.69;5038867;28;20049;-76
2023/09/20 06:12:30;;;;;;;7.07;3.00;;;;;;;15.40;100.00;100614.44;5028866;28;20087;-77
2023/09/20 06:14:55;;;;;;;6.80;2.85;;;;;;;15.43;100.00;100613.28;5032662;28;20025;-77
2023/09/20 06:17:22;;;;;;;6.72;2.72;;;;;;;15.47;100.00;100619.97;5031630;28;20481;-78
2023/09/20 06:19:48;;;;;;;10.93;3.42;;;;;;;15.47;100.00;100610.19;5032318;28;20036;-78
2023/09/20 06:22:16;;;;;;;7.20;3.10;;;;;;;15.50;100.00;100612.53;5033658;28;20481;-77
2023/09/20 06:24:45;;;;;;;6.63;3.42;;;;;;;15.54;100.00;100613.91;5032244;28;20033;-79
2023/09/20 06:27:10;;;;;;;9.02;2.90;;;;;;;15.57;100.00;100616.25;5034543;28;20120;-78
2023/09/20 06:29:36;;;;;;;7.47;2.50;;;;;;;15.61;100.00;100620.31;5021087;28;20088;-77
2023/09/20 06:32:01;;;;;;;6.40;2.72;;;;;;;15.66;100.00;100622.53;5012081;28;20030;-75
2023/09/20 06:34:27;;;;;;;8.40;2.92;;;;;;;15.71;100.00;100622.06;5013737;28;20121;-74
2023/09/20 06:36:57;;;;;;;6.75;2.85;;;;;;;15.74;100.00;100624.41;5028109;28;20028;-75
2023/09/20 06:39:22;;;;;;;8.00;2.97;;;;;;;15.79;100.00;100622.97;5031873;28;20390;-77
2023/09/20 06:41:49;;;;;;;6.85;2.97;;;;;;;15.83;100.00;100626.13;5025465;28;20037;-75
2023/09/20 06:44:17;;;;;;;7.45;2.78;;;;;;;15.88;100.00;100611.44;5031303;28;20081;-77
2023/09/20 06:46:43;;;;;;;5.90;2.60;;;;;;;15.95;100.00;100615.13;5032587;28;20030;-75
2023/09/20 06:49:09;;;;;;;4.88;2.70;;;;;;;16.03;100.00;100616.19;5032651;28;20033;-78
2023/09/20 06:51:35;;;;;;;5.45;2.38;;;;;;;16.12;100.00;100625.88;5031013;28;20508;-78
2023/09/20 06:54:02;;;;;;;5.75;2.72;;;;;;;16.23;100.00;100618.50;5028365;28;20014;-76
2023/09/20 06:56:27;;;;;;;6.15;2.42;;;;;;;16.37;100.00;100613.59;5029943;28;20565;-77
2023/09/20 06:58:55;;;;;;;8.15;2.70;;;;;;;16.47;100.00;100624.97;5030941;28;20030;-77
2023/09/20 07:01:21;;;;;;;5.93;2.30;;;;;;;16.58;100.00;100624.69;5023370;28;20431;-77
2023/09/20 07:03:46;;;;;;;5.85;2.45;;;;;;;16.71;100.00;100619.81;5026768;28;20108;-76
2023/09/20 07:06:12;;;;;;;5.75;2.28;;;;;;;16.80;100.00;100618.84;5031230;28;20389;-77
2023/09/20 07:08:37;;;;;;;5.32;2.60;;;;;;;16.91;100.00;100628.38;5030141;28;20030;-77
2023/09/20 07:11:04;;;;;;;4.80;2.55;;;;;;;17.05;100.00;100619.78;5031441;28;20448;-76
2023/09/20 07:13:32;;;;;;;7.70;2.63;;;;;;;17.12;100.00;100614.66;5027498;28;20018;-77
2023/09/20 07:15:59;;;;;;;6.40;2.40;;;;;;;17.19;100.00;100615.66;5029721;28;20039;-78
2023/09/20 07:18:28;;;;;;;6.00;2.65;;;;;;;17.28;100.00;100609.41;5028291;28;20059;-76
2023/09/20 07:20:54;;;;;;;8.52;2.50;;;;;;;17.36;100.00;100614.72;5029767;28;20029;-78
2023/09/20 07:23:20;;;;;;;7.05;2.38;;;;;;;17.43;100.00;100618.41;5030173;28;20033;-77
2023/09/20 07:25:49;;;;;;;5.47;2.38;;;;;;;17.53;99.72;100619.06;5029970;28;20064;-78
2023/09/20 07:28:16;;;;;;;5.45;2.55;;;;;;;17.66;98.95;100613.28;5027398;28;20120;-78
2023/09/20 07:30:45;;;;;;;5.80;2.50;;;;;;;17.71;98.81;100610.16;5030841;28;20588;-77
2023/09/20 07:33:11;;;;;;;8.20;2.80;;;;;;;17.74;98.43;100615.16;5033110;28;20061;-77
2023/09/20 07:35:38;;;;;;;7.05;2.75;;;;;;;17.77;97.78;100617.47;5030724;28;20106;-77
2023/09/20 07:38:12;;;;;;;6.10;2.45;;;;;;;17.71;98.49;100612.81;5028150;28;20021;-76
2023/09/20 07:40:40;;;;;;;8.73;2.75;;;;;;;17.70;98.06;100619.97;5030532;28;20029;-79
2023/09/20 07:43:10;;;;;;;5.63;2.53;;;;;;;17.72;98.47;100627.78;5027842;28;20498;-78
2023/09/20 07:45:41;;;;;;;4.53;2.72;;;;;;;17.76;97.93;100607.84;5027365;28;20026;-76
2023/09/20 07:48:12;;;;;;;6.40;2.63;;;;;;;17.88;97.77;100618.97;5029696;28;20052;-77
2023/09/20 07:50:40;;;;;;;5.35;2.03;;;;;;;17.90;97.34;100615.16;5029877;28;20017;-78
2023/09/20 07:53:10;;;;;;;5.63;2.63;;;;;;;17.94;97.24;100620.97;5030813;28;20108;-77
2023/09/20 07:55:45;;;;;;;7.47;2.83;;;;;;;18.00;96.45;100609.66;5029785;28;20071;-78
2023/09/20 07:58:14;;;;;;;6.85;2.63;;;;;;;17.96;95.77;100606.50;5030528;28;20021;-77
2023/09/20 08:00:44;;;;;;;7.38;2.70;;;;;;;18.09;96.41;100606.84;5030347;28;20025;-76
2023/09/20 08:03:18;;;;;;;4.38;2.28;;;;;;;18.10;95.03;100605.84;5031152;28;20032;-77
2023/09/20 08:05:50;;;;;;;6.75;2.13;;;;;;;18.19;94.81;100603.97;5034339;28;20496;-78
2023/09/20 08:08:16;;;;;;;6.18;2.75;;;;;;;18.27;94.74;100611.97;5023428;28;20398;-78
2023/09/20 08:10:44;;;;;;;7.13;3.28;;;;;;;18.33;94.01;100605.94;5028072;28;20022;-78
2023/09/20 08:13:13;;;;;;;5.80;2.80;;;;;;;18.39;93.46;100604.44;5027342;28;20390;-79
2023/09/20 08:15:42;;;;;;;6.38;3.03;;;;;;;18.45;93.65;100603.78;5030113;28;20021;-76
2023/09/20 08:20:53;;;;;;;8.45;3.42;;;;;;;18.59;92.68;100618.22;5017954;28;20099;-78
2023/09/20 09:01:45;;;;;;;8.25;2.50;;;;;;;19.62;87.77;100621.63;5033726;28;20055;-76
2023/09/20 09:04:12;;;;;;;7.57;3.05;;;;;;;19.69;86.11;100626.06;5033406;28;20036;-78
2023/09/20 09:06:38;;;;;;;7.60;2.80;;;;;;;19.66;86.26;100621.09;5032634;28;20021;-78
2023/09/20 09:09:03;;;;;;;5.90;2.78;;;;;;;19.60;85.68;100616.44;5033279;28;20028;-78
2023/09/20 09:11:29;;;;;;;6.15;2.65;;;;;;;19.54;86.43;100624.31;5035165;28;20140;-78
2023/09/20 09:13:58;;;;;;;6.38;2.92;;;;;;;19.46;87.48;100617.19;5033087;28;20030;-77
2023/09/20 09:16:29;;;;;;;6.30;2.70;;;;;;;19.48;87.35;100619.66;5033510;28;20030;-78
2023/09/20 09:18:55;;;;;;;4.47;2.20;;;;;;;19.47;87.67;100610.00;5033364;28;20029;-76
2023/09/20 09:21:20;;;;;;;5.88;2.40;;;;;;;19.47;87.40;100610.00;5030511;28;20481;-77
2023/09/20 09:23:46;;;;;;;7.47;2.65;;;;;;;19.44;87.06;100619.19;5032556;28;20406;-78
2023/09/20 09:26:13;;;;;;;6.25;2.35;;;;;;;19.45;87.54;100614.69;5035191;28;20071;-78
2023/09/20 09:28:44;;;;;;;7.28;2.75;;;;;;;19.52;86.70;100623.66;5032466;28;20033;-79
2023/09/20 09:31:09;;;;;;;4.00;2.50;;;;;;;19.61;86.97;100622.59;5027749;28;20397;-76
2023/09/20 09:33:36;;;;;;;9.40;2.38;;;;;;;19.69;85.42;100612.72;5032173;28;20025;-75
2023/09/20 09:36:06;;;;;;;5.57;2.17;;;;;;;19.83;85.53;100611.09;5030158;28;20112;-78
2023/09/20 09:38:33;;;;;;;6.53;2.25;;;;;;;19.99;85.08;100616.31;5030757;28;20069;-80
2023/09/20 09:41:01;;;;;;;4.75;2.10;;;;;;;20.17;83.71;100607.97;5032853;28;20030;-77
2023/09/20 09:43:28;;;;;;;4.88;2.40;;;;;;;20.34;82.84;100604.13;5031406;28;20049;-77
2023/09/20 09:46:01;;;;;;;6.22;2.45;;;;;;;20.47;81.42;100611.56;5031725;28;20037;-79
2023/09/20 09:48:29;;;;;;;3.00;1.95;;;;;;;20.54;81.51;100604.44;5031332;28;20035;-78
2023/09/20 09:50:57;;;;;;;6.47;2.38;;;;;;;20.49;80.36;100601.50;5034979;28;20029;-78
2023/09/20 09:53:25;;;;;;;4.82;2.00;;;;;;;20.59;81.28;100596.72;5026809;28;20026;-77
2023/09/20 09:55:51;;;;;;;3.30;1.95;;;;;;;20.76;80.75;100588.47;5037845;28;20107;-77
2023/09/20 09:58:16;;;;;;;5.47;2.20;;;;;;;20.97;78.69;100583.22;5031805;28;20045;-76
2023/09/20 10:00:48;;;;;;;4.68;2.00;;;;;;;21.40;78.51;100594.00;5032974;28;20315;-78
2023/09/20 10:03:40;;;;;;;5.75;2.20;;;;;;;21.51;76.12;100580.13;5025638;28;20080;-78
2023/09/20 10:06:28;;;;;;;5.15;2.05;;;;;;;21.40;77.20;100576.09;5047314;28;20179;-77
2023/09/20 10:08:57;;;;;;;4.88;2.20;;;;;;;21.38;76.25;100585.34;5025356;28;20033;-76
2023/09/20 10:11:23;;;;;;;6.15;2.10;;;;;;;21.36;75.91;100582.03;5033339;28;20025;-76
2023/09/20 10:13:52;;;;;;;6.63;2.20;;;;;;;21.32;75.80;100580.75;5032188;28;20033;-77
2023/09/20 10:16:18;;;;;;;5.35;2.28;;;;;;;21.30;77.51;100580.13;5032352;28;20017;-76
2023/09/20 10:18:53;;;;;;;5.65;2.22;;;;;;;21.45;77.28;100580.88;5032075;28;20022;-78
2023/09/20 10:21:23;;;;;;;6.05;1.70;;;;;;;21.61;75.69;100579.78;5031628;28;20017;-75
2023/09/20 10:23:51;;;;;;;5.30;1.88;;;;;;;21.73;73.59;100570.25;5029903;28;20017;-76
2023/09/20 10:26:18;;;;;;;6.82;1.75;;;;;;;21.67;72.86;100574.53;5032432;28;20033;-78
2023/09/20 10:28:51;;;;;;;13.20;2.42;;;;;;;21.63;73.67;100577.78;5030647;28;20381;-77
2023/09/20 10:31:19;;;;;;;7.68;2.15;;;;;;;21.63;73.53;100583.13;5029854;28;20035;-77
2023/09/20 10:33:47;;;;;;;12.57;2.13;;;;;;;21.61;73.04;100572.59;5028491;28;20093;-76
2023/09/20 10:36:20;;;;;;;7.88;1.90;;;;;;;21.79;73.63;100559.56;5031427;28;20394;-76
2023/09/20 10:38:47;;;;;;;12.70;2.00;;;;;;;21.87;74.05;100559.44;5027091;28;20385;-78
2023/09/20 10:41:14;;;;;;;11.05;2.38;;;;;;;21.87;74.97;100547.88;5032980;28;20444;-76
2023/09/20 10:43:41;;;;;;;7.28;2.15;;;;;;;21.89;71.91;100548.53;5031920;28;20398;-78
2023/09/20 10:46:12;;;;;;;8.30;2.13;;;;;;;21.70;71.20;100555.38;5031545;28;20033;-78
2023/09/20 10:48:49;;;;;;;7.78;1.75;;;;;;;21.68;73.29;100541.38;5028556;28;20556;-78
2023/09/20 10:51:48;;;;;;;8.25;1.75;;;;;;;21.74;73.58;100543.25;5029061;28;20029;-79
2023/09/20 10:54:22;;;;;;;5.28;1.35;;;;;;;21.68;72.78;100538.69;5028871;28;20037;-76
2023/09/20 10:56:50;;;;;;;5.68;1.52;;;;;;;21.73;72.65;100546.97;5030043;28;20025;-76
2023/09/20 10:59:16;;;;;;;10.70;1.48;;;;;;;21.80;73.97;100545.16;5023734;28;20100;-77
2023/09/20 11:01:51;;;;;;;9.77;1.70;;;;;;;21.91;72.96;100538.44;5030406;28;20031;-78
2023/09/20 11:04:17;;;;;;;4.30;1.30;;;;;;;21.90;71.73;100542.97;5031031;28;20022;-78
2023/09/20 11:06:50;;;;;;;10.20;1.80;;;;;;;21.91;71.62;100525.03;5029373;28;20022;-76
2023/09/20 11:09:15;;;;;;;;;;;;;;;22.09;73.51;100520.06;5031825;28;20057;-78
2023/09/20 11:11:42;;;;;;;11.23;2.15;;;;;;;21.88;71.38;100528.13;5025326;28;20400;-77
2023/09/20 11:14:09;;;;;;;8.80;2.00;;;;;;;21.94;71.60;100537.22;5032014;28;20034;-78
2023/09/20 11:16:36;;;;;;;9.82;1.88;;;;;;;21.85;70.28;100529.34;5030892;28;20106;-78
2023/09/20 11:19:03;;;;;;;12.02;1.77;;;;;;;21.93;71.05;100525.66;5030476;28;20698;-77
2023/09/20 11:21:28;;;;;;;9.25;1.45;;;;;;;21.99;69.77;100529.41;5029969;28;20033;-74
2023/09/20 11:23:53;;;;;;;9.23;2.08;;;;;;;22.04;69.66;100519.81;5035673;28;20021;-77
2023/09/20 11:26:27;;;;;;;11.80;1.67;;;;;;;22.04;69.80;100519.00;5031572;28;20099;-78
2023/09/20 11:28:53;;;;;;;7.53;2.00;;;;;;;22.01;67.91;100520.16;5026470;28;20362;-76
2023/09/20 11:31:29;;;;;;;13.43;1.63;;;;;;;21.95;68.96;100526.31;5029571;28;20018;-77
2023/09/20 11:34:03;;;;;;;8.52;1.85;;;;;;;21.83;69.19;100526.03;5026636;28;20025;-76
2023/09/20 11:36:38;;;;;;;11.63;1.80;;;;;;;21.78;70.38;100533.00;5030719;28;20074;-78
2023/09/20 11:39:05;;;;;;;9.93;1.88;;;;;;;21.63;69.67;100529.56;5027697;28;20029;-76
2023/09/20 11:41:32;;;;;;;11.10;1.65;;;;;;;21.59;70.84;100545.16;5028894;28;20042;-76
2023/09/20 11:44:00;;;;;;;12.55;1.73;;;;;;;21.54;69.51;100536.88;5026968;28;20132;-76
2023/09/20 11:46:34;;;;;;;10.75;1.80;;;;;;;21.50;71.11;100531.09;5030703;28;20021;-75
2023/09/20 11:49:02;;;;;;;10.57;1.70;;;;;;;21.55;71.59;100530.50;5029154;28;20032;-75
2023/09/20 11:51:31;;;;;;;6.05;1.50;;;;;;;21.50;71.37;100524.91;5024430;28;20515;-76
2023/09/20 11:53:57;;;;;;;7.22;1.50;;;;;;;21.51;70.52;100518.53;5027502;28;20120;-76
2023/09/20 11:56:31;;;;;;;8.55;1.75;;;;;;;21.54;71.20;100534.22;5047267;28;20393;-75
2023/09/20 11:59:00;;;;;;;9.55;2.05;;;;;;;21.47;70.93;100530.66;5030640;28;20397;-75
2023/09/20 12:01:30;;;;;;;7.40;2.10;;;;;;;21.47;71.51;100541.38;5030079;28;20117;-75
2023/09/20 12:03:58;;;;;;;9.30;1.80;;;;;;;21.42;70.44;100527.72;5026158;28;20390;-76
2023/09/20 12:06:26;;;;;;;7.82;1.65;;;;;;;21.37;71.16;100535.50;5030840;28;20017;-75